createdAt,value
2022-12-11T00:01:47.565Z,100463.84
2022-12-11T00:04:15.373Z,100466.91
2022-12-11T00:06:43.253Z,100463.03
2022-12-11T00:09:10.891Z,100464.22
2022-12-11T00:11:38.354Z,100472.59
2022-12-11T00:14:05.846Z,100457.91
2022-12-11T00:16:33.344Z,100460.34
2022-12-11T00:19:02.172Z,100461.97
2022-12-11T00:21:29.651Z,100462.38
2022-12-11T00:23:57.156Z,100445.47
2022-12-11T00:26:24.649Z,100459.94
2022-12-11T00:28:53.598Z,100450.78
2022-12-11T00:31:22.761Z,100460.69
2022-12-11T00:33:50.563Z,100447.31
2022-12-11T00:36:20.316Z,100451.16
2022-12-11T00:38:48.743Z,100447.97
2022-12-11T00:41:16.270Z,100451.22
2022-12-11T00:43:43.792Z,100462.31
2022-12-11T00:46:11.488Z,100463.22
2022-12-11T00:48:39.027Z,100453.56
2022-12-11T00:51:06.679Z,100454.09
2022-12-11T00:53:35.564Z,100448.47
2022-12-11T00:56:03.069Z,100440.09
2022-12-11T00:58:30.597Z,100449.50
2022-12-11T01:01:05.931Z,100444.09
2022-12-11T01:03:33.456Z,100445.34
2022-12-11T01:06:01.121Z,100439.13
2022-12-11T01:08:28.957Z,100438.38
2022-12-11T01:11:06.094Z,100442.06
2022-12-11T01:13:33.658Z,100429.63
2022-12-11T01:16:01.156Z,100428.44
2022-12-11T01:18:28.910Z,100441.38
2022-12-11T01:20:56.478Z,100442.16
2022-12-11T01:23:24.066Z,100455.69
2022-12-11T01:25:52.188Z,100442.91
2022-12-11T01:28:21.065Z,100454.03
2022-12-11T01:30:48.554Z,100449.47
2022-12-11T01:33:16.072Z,100423.56
2022-12-11T01:35:43.612Z,100448.16
2022-12-11T01:38:11.107Z,100447.03
2022-12-11T01:40:38.773Z,100437.44
2022-12-11T01:43:06.256Z,100443.38
2022-12-11T01:45:38.590Z,100445.53
2022-12-11T01:48:07.424Z,100440.53
2022-12-11T01:50:36.366Z,100441.72
2022-12-11T01:53:04.169Z,100451.53
2022-12-11T01:55:31.691Z,100438.97
2022-12-11T01:57:59.172Z,100442.28
2022-12-11T02:00:26.648Z,100442.31
2022-12-11T02:02:55.530Z,100440.72
2022-12-11T02:05:23.047Z,100446.38
2022-12-11T02:07:53.745Z,100429.78
2022-12-11T02:10:21.358Z,100442.47
2022-12-11T02:12:52.659Z,100450.69
2022-12-11T02:15:22.072Z,100442.16
2022-12-11T02:17:49.895Z,100447.63
2022-12-11T02:20:19.517Z,100439.34
2022-12-11T02:22:55.544Z,100421.34
2022-12-11T02:25:27.369Z,100430.69
2022-12-11T02:27:56.699Z,100426.91
2022-12-11T02:30:25.730Z,100416.56
2022-12-11T02:32:54.828Z,100422.72
2022-12-11T02:35:23.355Z,100422.81
2022-12-11T02:37:51.724Z,100409.66
2022-12-11T02:40:21.157Z,100419.59
2022-12-11T02:42:48.857Z,100416.03
2022-12-11T02:45:16.323Z,100415.53
2022-12-11T02:47:47.557Z,100424.94
2022-12-11T02:50:16.958Z,100427.50
2022-12-11T02:52:44.447Z,100425.47
2022-12-11T02:55:12.204Z,100416.59
2022-12-11T02:57:41.003Z,100415.53
2022-12-11T03:00:09.628Z,100419.91
2022-12-11T03:02:37.439Z,100421.31
2022-12-11T03:05:06.700Z,100419.81
2022-12-11T03:07:34.853Z,100421.13
2022-12-11T03:10:02.315Z,100412.28
2022-12-11T03:12:30.182Z,100415.59
2022-12-11T03:14:57.747Z,100416.94
2022-12-11T03:17:26.775Z,100413.69
2022-12-11T03:19:57.047Z,100413.00
2022-12-11T03:22:27.276Z,100415.91
2022-12-11T03:24:56.513Z,100413.69
2022-12-11T03:27:25.511Z,100419.50
2022-12-11T03:29:55.551Z,100414.78
2022-12-11T03:32:24.021Z,100421.25
2022-12-11T03:34:56.937Z,100419.09
2022-12-11T03:37:27.279Z,100425.44
2022-12-11T03:39:57.893Z,100423.41
2022-12-11T03:42:25.465Z,100415.78
2022-12-11T03:44:52.963Z,100412.00
2022-12-11T03:47:21.695Z,100420.41
2022-12-11T03:49:49.236Z,100414.53
2022-12-11T03:52:16.756Z,100408.16
2022-12-11T03:54:46.965Z,100416.50
2022-12-11T03:57:15.312Z,100418.31
2022-12-11T03:59:43.241Z,100416.59
2022-12-11T04:02:11.698Z,100420.00
2022-12-11T04:04:39.729Z,100420.63
2022-12-11T04:07:07.251Z,100409.75
2022-12-11T04:09:34.938Z,100412.09
2022-12-11T04:12:03.840Z,100413.03
2022-12-11T04:14:48.922Z,100418.31
2022-12-11T04:17:36.452Z,100410.94
2022-12-11T04:20:21.361Z,100411.91
2022-12-11T04:23:14.576Z,100419.00
2022-12-11T04:25:42.089Z,100421.53
2022-12-11T04:28:11.080Z,100414.44
2022-12-11T04:30:38.533Z,100419.38
2022-12-11T04:33:06.102Z,100414.97
2022-12-11T04:35:33.657Z,100414.06
2022-12-11T04:38:01.232Z,100423.22
2022-12-11T04:40:28.994Z,100413.03
2022-12-11T04:42:56.523Z,100414.16
2022-12-11T04:45:25.378Z,100398.00
2022-12-11T04:47:52.888Z,100402.91
2022-12-11T04:50:20.359Z,100409.19
2022-12-11T04:52:47.875Z,100400.50
2022-12-11T04:55:15.596Z,100406.78
2022-12-11T04:57:43.157Z,100401.06
2022-12-11T05:00:11.870Z,100393.69
2022-12-11T05:02:41.031Z,100388.13
2022-12-11T05:05:09.881Z,100394.22
2022-12-11T05:07:37.872Z,100378.13
2022-12-11T05:10:06.346Z,100379.63
2022-12-11T05:12:33.883Z,100378.53
2022-12-11T05:15:01.330Z,100368.63
2022-12-11T05:17:28.853Z,100376.38
2022-12-11T05:19:57.687Z,100378.03
2022-12-11T05:22:25.113Z,100375.91
2022-12-11T05:24:52.646Z,100368.91
2022-12-11T05:27:20.982Z,100379.88
2022-12-11T05:29:48.638Z,100376.31
2022-12-11T05:32:16.212Z,100378.09
2022-12-11T05:34:43.859Z,100372.88
2022-12-11T05:37:12.737Z,100376.44
2022-12-11T05:39:40.314Z,100372.88
2022-12-11T05:42:07.914Z,100374.00
2022-12-11T05:44:35.464Z,100374.19
2022-12-11T05:47:03.047Z,100375.44
2022-12-11T05:49:31.179Z,100379.22
2022-12-11T05:51:58.859Z,100386.13
2022-12-11T05:54:27.736Z,100377.97
2022-12-11T05:56:55.438Z,100379.03
2022-12-11T05:59:22.924Z,100378.06
2022-12-11T06:01:50.479Z,100378.13
2022-12-11T06:04:18.040Z,100370.19
2022-12-11T06:06:45.524Z,100372.78
2022-12-11T06:09:14.332Z,100376.09
2022-12-11T06:11:43.687Z,100371.56
2022-12-11T06:14:11.295Z,100368.75
2022-12-11T06:16:38.926Z,100355.91
2022-12-11T06:19:06.492Z,100364.25
2022-12-11T06:21:34.149Z,100368.53
2022-12-11T06:24:02.306Z,100375.38
2022-12-11T06:26:30.236Z,100378.94
2022-12-11T06:28:59.101Z,100388.47
2022-12-11T06:31:26.594Z,100379.81
2022-12-11T06:33:54.302Z,100371.19
2022-12-11T06:36:23.652Z,100362.59
2022-12-11T06:38:51.200Z,100374.13
2022-12-11T06:41:19.049Z,100369.88
2022-12-11T06:43:46.594Z,100371.34
2022-12-11T06:46:16.463Z,100369.47
2022-12-11T06:48:44.108Z,100371.19
2022-12-11T06:51:12.356Z,100374.09
2022-12-11T06:53:39.942Z,100368.44
2022-12-11T06:56:08.194Z,100365.97
2022-12-11T06:58:36.103Z,100357.22
2022-12-11T07:01:04.159Z,100362.06
2022-12-11T07:03:33.529Z,100363.91
2022-12-11T07:06:01.752Z,100365.22
2022-12-11T07:08:29.288Z,100377.16
2022-12-11T07:10:56.781Z,100368.69
2022-12-11T07:13:24.220Z,100376.09
2022-12-11T07:15:51.753Z,100372.69
2022-12-11T07:18:19.224Z,100373.78
2022-12-11T07:20:48.197Z,100376.84
2022-12-11T07:23:15.680Z,100364.38
2022-12-11T07:25:43.124Z,100355.72
2022-12-11T07:28:16.529Z,100371.47
2022-12-11T07:30:44.261Z,100386.53
2022-12-11T07:33:12.030Z,100380.91
2022-12-11T07:35:39.565Z,100379.59
2022-12-11T07:38:08.386Z,100378.81
2022-12-11T07:40:35.818Z,100383.00
2022-12-11T07:43:03.279Z,100380.41
2022-12-11T07:45:30.777Z,100383.13
2022-12-11T07:47:59.032Z,100378.09
2022-12-11T07:50:26.533Z,100385.22
2022-12-11T07:52:54.043Z,100394.44
2022-12-11T07:55:22.947Z,100385.03
2022-12-11T07:57:50.434Z,100392.22
2022-12-11T08:00:18.635Z,100396.88
2022-12-11T08:02:46.571Z,100400.81
2022-12-11T08:05:14.207Z,100399.44
2022-12-11T08:07:41.707Z,100397.03
2022-12-11T08:10:09.585Z,100398.59
2022-12-11T08:12:38.443Z,100400.09
2022-12-11T08:15:06.393Z,100400.25
2022-12-11T08:17:39.837Z,100415.25
2022-12-11T08:20:08.542Z,100403.38
2022-12-11T08:22:36.287Z,100411.38
2022-12-11T08:25:03.802Z,100403.88
2022-12-11T08:27:31.601Z,100407.25
2022-12-11T08:30:00.826Z,100413.75
2022-12-11T08:32:28.574Z,100401.84
2022-12-11T08:34:56.120Z,100405.06
2022-12-11T08:37:24.330Z,100401.03
2022-12-11T08:39:51.957Z,100389.56
2022-12-11T08:42:19.423Z,100378.94
2022-12-11T08:44:47.067Z,100383.59
2022-12-11T08:47:16.405Z,100377.06
2022-12-11T08:49:43.992Z,100379.59
2022-12-11T08:52:11.508Z,100380.66
2022-12-11T08:54:39.066Z,100385.88
2022-12-11T08:57:06.511Z,100385.56
2022-12-11T08:59:34.080Z,100382.66
2022-12-11T09:02:01.544Z,100379.34
2022-12-11T09:04:30.433Z,100383.31
2022-12-11T09:06:57.931Z,100376.50
2022-12-11T09:09:25.364Z,100372.13
2022-12-11T09:11:52.884Z,100372.72
2022-12-11T09:14:21.432Z,100378.59
2022-12-11T09:16:49.131Z,100369.59
2022-12-11T09:19:17.804Z,100378.41
2022-12-11T09:21:46.728Z,100376.78
2022-12-11T09:24:14.951Z,100394.50
2022-12-11T09:26:42.580Z,100379.00
2022-12-11T09:29:11.037Z,100383.22
2022-12-11T09:31:38.491Z,100381.16
2022-12-11T09:34:06.755Z,100384.41
2022-12-11T09:36:34.510Z,100385.44
2022-12-11T09:39:04.721Z,100386.13
2022-12-11T09:41:38.904Z,100383.81
2022-12-11T09:44:08.741Z,100377.50
2022-12-11T09:46:36.275Z,100380.50
2022-12-11T09:49:04.393Z,100370.03
2022-12-11T09:51:33.044Z,100369.69
2022-12-11T09:54:01.283Z,100371.97
2022-12-11T09:56:32.119Z,100371.59
2022-12-11T09:59:04.163Z,100362.47
2022-12-11T10:01:35.048Z,100380.25
2022-12-11T10:04:15.713Z,100376.19
2022-12-11T10:06:44.496Z,100369.47
2022-12-11T10:09:20.013Z,100370.94
2022-12-11T10:11:57.707Z,100381.19
2022-12-11T10:14:27.351Z,100372.59
2022-12-11T10:16:55.833Z,100360.00
2022-12-11T10:19:27.631Z,100375.41
2022-12-11T10:21:55.239Z,100382.22
2022-12-11T10:24:57.584Z,100370.38
2022-12-11T10:27:19.155Z,100372.50
2022-12-11T10:29:46.732Z,100377.41
2022-12-11T10:32:16.705Z,100377.31
2022-12-11T10:34:44.573Z,100380.34
2022-12-11T10:37:12.302Z,100372.75
2022-12-11T10:39:39.795Z,100376.19
2022-12-11T10:42:11.667Z,100367.22
2022-12-11T10:44:40.736Z,100365.41
2022-12-11T10:47:12.197Z,100360.97
2022-12-11T10:49:43.565Z,100365.06
2022-12-11T10:52:11.900Z,100365.38
2022-12-11T10:54:40.032Z,100357.41
2022-12-11T10:57:08.991Z,100352.94
2022-12-11T10:59:42.269Z,100363.84
2022-12-11T11:02:21.138Z,100352.63
2022-12-11T11:04:48.611Z,100356.50
2022-12-11T11:07:17.404Z,100344.31
2022-12-11T11:09:45.385Z,100350.91
2022-12-11T11:12:19.839Z,100354.94
2022-12-11T11:14:48.739Z,100348.31
2022-12-11T11:17:18.080Z,100351.44
2022-12-11T11:19:47.276Z,100347.50
2022-12-11T11:22:15.459Z,100354.31
2022-12-11T11:24:44.585Z,100359.69
2022-12-11T11:27:24.713Z,100359.91
2022-12-11T11:29:54.143Z,100341.25
2022-12-11T11:32:23.425Z,100353.94
2022-12-11T11:34:50.911Z,100344.00
2022-12-11T11:37:24.130Z,100343.28
2022-12-11T11:39:54.293Z,100336.91
2022-12-11T11:42:23.278Z,100337.66
2022-12-11T11:44:52.048Z,100323.34
2022-12-11T11:47:22.853Z,100341.38
2022-12-11T11:49:54.525Z,100325.88
2022-12-11T11:52:25.294Z,100319.84
2022-12-11T11:54:54.232Z,100324.13
2022-12-11T11:57:24.650Z,100316.09
2022-12-11T11:59:56.575Z,100329.28
2022-12-11T12:02:25.495Z,100309.13
2022-12-11T12:04:53.241Z,100325.84
2022-12-11T12:07:25.856Z,100317.47
2022-12-11T12:09:56.971Z,100338.88
2022-12-11T12:12:33.770Z,100342.97
2022-12-11T12:15:18.313Z,100341.25
2022-12-11T12:17:55.752Z,100332.69
2022-12-11T12:20:26.227Z,100337.22
2022-12-11T12:22:56.968Z,100324.03
2022-12-11T12:25:25.753Z,100328.75
2022-12-11T12:27:58.796Z,100324.50
2022-12-11T12:30:26.268Z,100328.81
2022-12-11T12:32:58.510Z,100312.75
2022-12-11T12:35:31.885Z,100304.78
2022-12-11T12:38:02.964Z,100314.94
2022-12-11T12:40:31.210Z,100304.13
2022-12-11T12:43:01.587Z,100309.84
2022-12-11T12:45:33.258Z,100313.22
2022-12-11T12:48:02.189Z,100310.13
2022-12-11T12:50:30.822Z,100309.81
2022-12-11T12:52:59.200Z,100310.03
2022-12-11T12:55:28.772Z,100312.44
2022-12-11T12:57:57.473Z,100303.06
2022-12-11T13:00:34.089Z,100312.63
2022-12-11T13:03:04.192Z,100318.44
2022-12-11T13:05:32.182Z,100313.75
2022-12-11T13:08:02.867Z,100313.22
2022-12-11T13:10:32.043Z,100315.75
2022-12-11T13:13:00.218Z,100302.81
2022-12-11T13:15:29.436Z,100306.44
2022-12-11T13:17:57.100Z,100316.94
2022-12-11T13:20:26.685Z,100313.75
2022-12-11T13:23:10.736Z,100313.34
2022-12-11T13:25:51.779Z,100313.44
2022-12-11T13:28:24.809Z,100320.00
2022-12-11T13:30:59.725Z,100316.16
2022-12-11T13:33:27.972Z,100308.88
2022-12-11T13:36:13.035Z,100299.56
2022-12-11T13:38:46.780Z,100325.31
2022-12-11T13:41:14.251Z,100316.75
2022-12-11T13:43:43.144Z,100316.09
2022-12-11T13:46:11.135Z,100326.78
2022-12-11T13:48:39.587Z,100329.22
2022-12-11T13:51:08.397Z,100321.03
2022-12-11T13:53:35.853Z,100315.03
2022-12-11T13:56:05.544Z,100332.47
2022-12-11T13:58:35.064Z,100333.06
2022-12-11T14:01:05.542Z,100330.47
2022-12-11T14:03:33.321Z,100320.75
2022-12-11T14:06:01.073Z,100332.16
2022-12-11T14:08:33.728Z,100327.00
2022-12-11T14:11:01.215Z,100339.88
2022-12-11T14:13:30.689Z,100325.69
2022-12-11T14:15:58.228Z,100333.06
2022-12-11T14:18:26.240Z,100332.28
2022-12-11T14:20:57.452Z,100332.81
2022-12-11T14:23:26.589Z,100327.97
2022-12-11T14:25:55.626Z,100326.03
2022-12-11T14:28:27.391Z,100332.22
2022-12-11T14:30:57.527Z,100329.56
2022-12-11T14:33:25.736Z,100325.25
2022-12-11T14:35:53.408Z,100322.59
2022-12-11T14:38:21.208Z,100319.13
2022-12-11T14:40:50.087Z,100305.47
2022-12-11T14:43:24.498Z,100306.00
2022-12-11T14:45:52.073Z,100315.63
2022-12-11T14:48:20.443Z,100305.31
2022-12-11T14:50:48.729Z,100323.44
2022-12-11T14:53:18.764Z,100332.38
2022-12-11T14:55:46.273Z,100325.94
2022-12-11T14:58:16.543Z,100318.53
2022-12-11T15:00:45.388Z,100324.84
2022-12-11T15:03:24.171Z,100316.28
2022-12-11T15:05:52.487Z,100324.50
2022-12-11T15:08:24.999Z,100322.75
2022-12-11T15:11:02.624Z,100324.19
2022-12-11T15:13:30.323Z,100320.56
2022-12-11T15:15:59.798Z,100322.25
2022-12-11T15:18:28.102Z,100334.72
2022-12-11T15:20:56.328Z,100330.78
2022-12-11T15:23:24.037Z,100329.97
2022-12-11T15:25:51.923Z,100322.75
2022-12-11T15:28:27.260Z,100336.59
2022-12-11T15:30:57.787Z,100334.19
2022-12-11T15:33:32.537Z,100333.38
2022-12-11T15:36:02.658Z,100338.50
2022-12-11T15:38:31.698Z,100324.13
2022-12-11T15:40:59.732Z,100346.00
2022-12-11T15:43:27.952Z,100330.84
2022-12-11T15:45:55.758Z,100339.25
2022-12-11T15:48:23.590Z,100341.81
2022-12-11T15:50:52.625Z,100348.81
2022-12-11T15:53:20.135Z,100347.63
2022-12-11T15:55:47.669Z,100336.00
2022-12-11T15:58:15.475Z,100334.50
2022-12-11T16:00:42.972Z,100344.00
2022-12-11T16:03:12.018Z,100344.84
2022-12-11T16:05:39.474Z,100346.44
2022-12-11T16:08:08.615Z,100348.81
2022-12-11T16:10:36.246Z,100344.06
2022-12-11T16:13:03.965Z,100337.50
2022-12-11T16:15:31.492Z,100352.53
2022-12-11T16:18:03.045Z,100341.22
2022-12-11T16:20:31.242Z,100351.44
2022-12-11T16:22:58.903Z,100351.44
2022-12-11T16:25:28.148Z,100349.69
2022-12-11T16:27:56.260Z,100353.72
2022-12-11T16:30:23.838Z,100343.63
2022-12-11T16:32:53.223Z,100336.69
2022-12-11T16:35:21.305Z,100344.00
2022-12-11T16:37:49.793Z,100358.66
2022-12-11T16:40:17.412Z,100357.66
2022-12-11T16:42:46.465Z,100353.28
2022-12-11T16:45:14.947Z,100353.19
2022-12-11T16:47:42.642Z,100354.03
2022-12-11T16:50:10.624Z,100346.00
2022-12-11T16:52:38.075Z,100351.13
2022-12-11T16:55:06.440Z,100350.47
2022-12-11T16:57:34.528Z,100345.81
2022-12-11T17:00:03.565Z,100350.22
2022-12-11T17:02:31.091Z,100350.69
2022-12-11T17:04:58.619Z,100353.41
2022-12-11T17:07:26.249Z,100341.50
2022-12-11T17:09:53.716Z,100346.28
2022-12-11T17:12:25.820Z,100354.63
2022-12-11T17:14:53.556Z,100351.53
2022-12-11T17:17:22.400Z,100344.16
2022-12-11T17:19:49.884Z,100349.81
2022-12-11T17:22:17.351Z,100340.22
2022-12-11T17:24:44.836Z,100361.31
2022-12-11T17:27:12.558Z,100349.13
2022-12-11T17:29:40.212Z,100362.66
2022-12-11T17:32:08.135Z,100350.94
2022-12-11T17:34:38.642Z,100350.53
2022-12-11T17:37:06.532Z,100350.44
2022-12-11T17:39:34.192Z,100363.66
2022-12-11T17:42:01.772Z,100368.31
2022-12-11T17:44:31.142Z,100364.25
2022-12-11T17:46:58.816Z,100359.72
2022-12-11T17:49:26.903Z,100369.72
2022-12-11T17:51:55.814Z,100367.72
2022-12-11T17:54:23.697Z,100359.84
2022-12-11T17:56:51.334Z,100362.94
2022-12-11T17:59:18.820Z,100356.53
2022-12-11T18:01:46.705Z,100360.34
2022-12-11T18:04:14.326Z,100357.72
2022-12-11T18:06:41.847Z,100343.88
2022-12-11T18:09:11.258Z,100356.31
2022-12-11T18:11:38.846Z,100340.97
2022-12-11T18:14:06.344Z,100345.41
2022-12-11T18:16:34.779Z,100365.28
2022-12-11T18:19:02.275Z,100368.09
2022-12-11T18:21:31.837Z,100354.50
2022-12-11T18:23:59.503Z,100358.16
2022-12-11T18:26:28.930Z,100358.94
2022-12-11T18:28:56.460Z,100350.31
2022-12-11T18:31:24.017Z,100349.69
2022-12-11T18:33:51.655Z,100365.22
2022-12-11T18:36:19.835Z,100365.91
2022-12-11T18:38:47.903Z,100349.78
2022-12-11T18:41:15.891Z,100349.22
2022-12-11T18:43:45.100Z,100354.59
2022-12-11T18:46:14.242Z,100359.47
2022-12-11T18:48:42.405Z,100352.53
2022-12-11T18:51:10.388Z,100364.06
2022-12-11T18:53:39.186Z,100351.50
2022-12-11T18:56:07.783Z,100338.25
2022-12-11T18:58:35.339Z,100335.09
2022-12-11T19:01:08.149Z,100347.63
2022-12-11T19:03:35.797Z,100344.50
2022-12-11T19:06:07.140Z,100353.13
2022-12-11T19:08:34.830Z,100354.69
2022-12-11T19:11:02.376Z,100334.78
2022-12-11T19:13:29.858Z,100344.91
2022-12-11T19:15:57.378Z,100344.56
2022-12-11T19:18:26.784Z,100348.63
2022-12-11T19:21:03.251Z,100351.94
2022-12-11T19:23:34.205Z,100348.97
2022-12-11T19:26:01.788Z,100355.03
2022-12-11T19:28:29.303Z,100343.63
2022-12-11T19:30:57.201Z,100355.53
2022-12-11T19:33:26.115Z,100360.34
2022-12-11T19:36:01.001Z,100351.59
2022-12-11T19:38:28.554Z,100359.72
2022-12-11T19:40:56.068Z,100353.84
2022-12-11T19:43:23.625Z,100364.66
2022-12-11T19:45:51.134Z,100356.81
2022-12-11T19:48:18.669Z,100367.06
2022-12-11T19:50:47.495Z,100355.34
2022-12-11T19:53:15.212Z,100360.09
2022-12-11T19:55:49.466Z,100364.56
2022-12-11T19:58:16.965Z,100358.25
2022-12-11T20:00:44.539Z,100351.75
2022-12-11T20:03:12.050Z,100372.94
2022-12-11T20:05:39.656Z,100364.78
2022-12-11T20:08:35.747Z,100357.25
2022-12-11T20:10:56.421Z,100347.97
2022-12-11T20:13:23.896Z,100360.19
2022-12-11T20:15:51.769Z,100366.78
2022-12-11T20:18:19.696Z,100362.47
2022-12-11T20:20:47.204Z,100357.44
2022-12-11T20:23:16.327Z,100367.78
2022-12-11T20:25:43.855Z,100358.09
2022-12-11T20:28:11.372Z,100351.06
2022-12-11T20:30:38.893Z,100362.16
2022-12-11T20:33:06.448Z,100371.66
2022-12-11T20:35:33.921Z,100363.16
2022-12-11T20:38:01.361Z,100357.25
2022-12-11T20:40:30.451Z,100370.31
2022-12-11T20:42:58.145Z,100375.66
2022-12-11T20:45:25.703Z,100376.88
2022-12-11T20:47:53.232Z,100379.41
2022-12-11T20:50:20.806Z,100363.41
2022-12-11T20:52:48.349Z,100371.00
2022-12-11T20:55:15.865Z,100359.13
2022-12-11T20:57:45.419Z,100365.97
2022-12-11T21:00:13.655Z,100349.09
2022-12-11T21:02:41.331Z,100345.03
2022-12-11T21:05:09.246Z,100347.88
2022-12-11T21:07:36.990Z,100355.81
2022-12-11T21:10:04.636Z,100347.59
2022-12-11T21:12:32.119Z,100356.63
2022-12-11T21:15:00.947Z,100361.31
2022-12-11T21:17:28.435Z,100360.94
2022-12-11T21:19:55.888Z,100372.88
2022-12-11T21:22:23.587Z,100366.69
2022-12-11T21:24:51.066Z,100377.69
2022-12-11T21:27:18.551Z,100382.97
2022-12-11T21:29:46.044Z,100366.69
2022-12-11T21:32:14.932Z,100369.72
2022-12-11T21:34:42.449Z,100372.88
2022-12-11T21:37:10.170Z,100359.25
2022-12-11T21:39:39.494Z,100363.16
2022-12-11T21:42:07.139Z,100367.97
2022-12-11T21:47:24.579Z,100366.22
2022-12-11T21:49:52.131Z,100358.88
2022-12-11T21:52:19.690Z,100348.59
2022-12-11T21:54:47.379Z,100350.56
2022-12-11T21:57:14.886Z,100364.44
2022-12-11T21:59:42.495Z,100379.16
2022-12-11T22:02:11.460Z,100376.09
2022-12-11T22:04:40.328Z,100370.88
2022-12-11T22:07:07.980Z,100364.66
2022-12-11T22:09:35.478Z,100359.38
2022-12-11T22:12:02.978Z,100370.25
2022-12-11T22:14:31.447Z,100379.16
2022-12-11T22:16:59.215Z,100375.88
2022-12-11T22:19:32.318Z,100367.56
2022-12-11T22:22:01.611Z,100371.25
2022-12-11T22:24:29.333Z,100374.41
2022-12-11T22:26:56.856Z,100383.47
2022-12-11T22:29:24.800Z,100385.56
2022-12-11T22:31:52.836Z,100383.13
2022-12-11T22:34:20.337Z,100381.97
2022-12-11T22:36:47.868Z,100376.16
2022-12-11T22:39:16.753Z,100360.47
2022-12-11T22:41:44.640Z,100380.72
2022-12-11T22:44:15.175Z,100380.00
2022-12-11T22:46:46.850Z,100385.31
2022-12-11T22:49:17.343Z,100388.63
2022-12-11T22:51:44.860Z,100388.13
2022-12-11T22:54:12.513Z,100392.50
2022-12-11T22:56:41.373Z,100388.13
2022-12-11T22:59:08.846Z,100387.72
2022-12-11T23:01:36.692Z,100385.56
2022-12-11T23:04:04.184Z,100375.81
2022-12-11T23:06:31.627Z,100393.94
2022-12-11T23:08:59.602Z,100395.44
2022-12-11T23:11:28.166Z,100396.34
2022-12-11T23:13:57.176Z,100396.22
2022-12-11T23:16:25.110Z,100403.88
2022-12-11T23:18:53.025Z,100401.06
2022-12-11T23:21:21.692Z,100399.16
2022-12-11T23:23:49.251Z,100397.84
2022-12-11T23:26:18.577Z,100373.03
2022-12-11T23:28:46.217Z,100398.84
2022-12-11T23:31:15.558Z,100383.59
2022-12-11T23:33:43.122Z,100384.94
2022-12-11T23:36:11.098Z,100380.13
2022-12-11T23:38:38.689Z,100389.63
2022-12-11T23:41:07.101Z,100397.34
2022-12-11T23:43:34.851Z,100395.44
2022-12-11T23:46:02.710Z,100403.97
2022-12-11T23:48:32.167Z,100396.84
2022-12-11T23:51:00.500Z,100407.19
2022-12-11T23:53:28.225Z,100402.72
2022-12-11T23:55:55.824Z,100400.25
2022-12-11T23:58:23.426Z,100401.78
